sensor_id;sensor_type;location;lat;lon;timestamp;temperature;humidity
76211;DHT22;65003;49.518;11.280;2023-04-03T00:02:19;5.80;69.60
76211;DHT22;65003;49.518;11.280;2023-04-03T00:04:45;5.70;69.70
76211;DHT22;65003;49.518;11.280;2023-04-03T00:07:13;5.70;69.40
76211;DHT22;65003;49.518;11.280;2023-04-03T00:09:40;5.60;70.00
76211;DHT22;65003;49.518;11.280;2023-04-03T00:12:06;5.80;69.70
76211;DHT22;65003;49.518;11.280;2023-04-03T00:14:33;5.90;68.90
76211;DHT22;65003;49.518;11.280;2023-04-03T00:16:59;5.90;68.60
76211;DHT22;65003;49.518;11.280;2023-04-03T00:19:26;5.90;68.60
76211;DHT22;65003;49.518;11.280;2023-04-03T00:21:53;5.80;69.00
76211;DHT22;65003;49.518;11.280;2023-04-03T00:24:19;5.70;69.30
76211;DHT22;65003;49.518;11.280;2023-04-03T00:26:46;5.60;69.90
76211;DHT22;65003;49.518;11.280;2023-04-03T00:29:12;5.70;70.40
76211;DHT22;65003;49.518;11.280;2023-04-03T00:31:39;5.70;69.20
76211;DHT22;65003;49.518;11.280;2023-04-03T00:34:05;5.80;69.40
76211;DHT22;65003;49.518;11.280;2023-04-03T00:36:32;5.90;69.00
76211;DHT22;65003;49.518;11.280;2023-04-03T00:38:59;5.90;68.90
76211;DHT22;65003;49.518;11.280;2023-04-03T00:41:25;6.00;69.00
76211;DHT22;65003;49.518;11.280;2023-04-03T00:43:52;5.90;69.20
76211;DHT22;65003;49.518;11.280;2023-04-03T00:46:18;5.90;69.00
76211;DHT22;65003;49.518;11.280;2023-04-03T00:48:45;5.90;69.20
76211;DHT22;65003;49.518;11.280;2023-04-03T00:51:14;6.00;69.20
76211;DHT22;65003;49.518;11.280;2023-04-03T00:53:43;5.90;69.40
76211;DHT22;65003;49.518;11.280;2023-04-03T00:56:08;6.00;69.00
76211;DHT22;65003;49.518;11.280;2023-04-03T00:58:37;6.00;68.80
76211;DHT22;65003;49.518;11.280;2023-04-03T01:01:02;6.10;68.20
76211;DHT22;65003;49.518;11.280;2023-04-03T01:03:27;6.10;69.50
76211;DHT22;65003;49.518;11.280;2023-04-03T01:05:53;6.20;68.80
76211;DHT22;65003;49.518;11.280;2023-04-03T01:08:20;6.10;67.90
76211;DHT22;65003;49.518;11.280;2023-04-03T01:10:47;6.10;68.30
76211;DHT22;65003;49.518;11.280;2023-04-03T01:13:20;6.10;68.60
76211;DHT22;65003;49.518;11.280;2023-04-03T01:15:45;6.10;68.40
76211;DHT22;65003;49.518;11.280;2023-04-03T01:18:11;6.10;68.10
76211;DHT22;65003;49.518;11.280;2023-04-03T01:22:02;6.10;68.40
76211;DHT22;65003;49.518;11.280;2023-04-03T01:23:44;6.00;68.70
76211;DHT22;65003;49.518;11.280;2023-04-03T01:26:08;6.00;68.90
76211;DHT22;65003;49.518;11.280;2023-04-03T01:28:35;5.90;68.80
76211;DHT22;65003;49.518;11.280;2023-04-03T01:31:12;6.00;68.60
76211;DHT22;65003;49.518;11.280;2023-04-03T01:33:35;5.90;68.50
76211;DHT22;65003;49.518;11.280;2023-04-03T01:36:01;5.80;69.10
76211;DHT22;65003;49.518;11.280;2023-04-03T01:38:28;5.80;69.60
76211;DHT22;65003;49.518;11.280;2023-04-03T01:40:54;5.80;69.60
76211;DHT22;65003;49.518;11.280;2023-04-03T01:43:21;5.70;69.70
76211;DHT22;65003;49.518;11.280;2023-04-03T01:45:48;5.60;69.70
76211;DHT22;65003;49.518;11.280;2023-04-03T01:48:14;5.60;69.70
76211;DHT22;65003;49.518;11.280;2023-04-03T01:50:41;5.50;70.20
76211;DHT22;65003;49.518;11.280;2023-04-03T01:53:07;5.50;69.80
76211;DHT22;65003;49.518;11.280;2023-04-03T01:55:34;5.50;69.90
76211;DHT22;65003;49.518;11.280;2023-04-03T01:58:00;5.50;70.30
76211;DHT22;65003;49.518;11.280;2023-04-03T02:00:27;5.60;70.20
76211;DHT22;65003;49.518;11.280;2023-04-03T02:02:53;5.60;69.90
76211;DHT22;65003;49.518;11.280;2023-04-03T02:05:20;5.60;69.70
76211;DHT22;65003;49.518;11.280;2023-04-03T02:07:47;5.50;69.60
76211;DHT22;65003;49.518;11.280;2023-04-03T02:10:13;5.40;70.90
76211;DHT22;65003;49.518;11.280;2023-04-03T02:12:40;5.30;71.80
76211;DHT22;65003;49.518;11.280;2023-04-03T02:15:07;5.20;71.80
76211;DHT22;65003;49.518;11.280;2023-04-03T02:17:34;5.10;72.00
76211;DHT22;65003;49.518;11.280;2023-04-03T02:20:01;5.10;72.00
76211;DHT22;65003;49.518;11.280;2023-04-03T02:22:27;5.10;71.70
76211;DHT22;65003;49.518;11.280;2023-04-03T02:24:54;5.00;72.00
76211;DHT22;65003;49.518;11.280;2023-04-03T02:27:20;5.00;72.10
76211;DHT22;65003;49.518;11.280;2023-04-03T02:29:47;4.90;72.30
76211;DHT22;65003;49.518;11.280;2023-04-03T02:32:13;4.90;72.90
76211;DHT22;65003;49.518;11.280;2023-04-03T02:34:40;4.90;73.50
76211;DHT22;65003;49.518;11.280;2023-04-03T02:37:06;4.90;73.50
76211;DHT22;65003;49.518;11.280;2023-04-03T02:39:33;5.00;73.50
76211;DHT22;65003;49.518;11.280;2023-04-03T02:42:00;5.00;73.60
76211;DHT22;65003;49.518;11.280;2023-04-03T02:44:26;5.00;73.70
76211;DHT22;65003;49.518;11.280;2023-04-03T02:46:53;5.00;74.00
76211;DHT22;65003;49.518;11.280;2023-04-03T02:49:19;5.00;74.10
76211;DHT22;65003;49.518;11.280;2023-04-03T02:51:46;5.00;74.60
76211;DHT22;65003;49.518;11.280;2023-04-03T02:54:13;5.00;74.20
76211;DHT22;65003;49.518;11.280;2023-04-03T02:56:39;4.90;74.50
76211;DHT22;65003;49.518;11.280;2023-04-03T02:59:06;4.80;75.20
76211;DHT22;65003;49.518;11.280;2023-04-03T03:01:32;4.70;75.80
76211;DHT22;65003;49.518;11.280;2023-04-03T03:03:59;4.50;77.20
76211;DHT22;65003;49.518;11.280;2023-04-03T03:06:26;4.30;78.00
76211;DHT22;65003;49.518;11.280;2023-04-03T03:08:53;4.50;78.60
76211;DHT22;65003;49.518;11.280;2023-04-03T03:11:19;4.70;76.70
76211;DHT22;65003;49.518;11.280;2023-04-03T03:13:46;4.80;76.20
76211;DHT22;65003;49.518;11.280;2023-04-03T03:16:12;4.80;76.30
76211;DHT22;65003;49.518;11.280;2023-04-03T03:18:39;4.80;76.20
76211;DHT22;65003;49.518;11.280;2023-04-03T03:21:06;4.90;76.10
76211;DHT22;65003;49.518;11.280;2023-04-03T03:23:32;4.90;76.10
76211;DHT22;65003;49.518;11.280;2023-04-03T03:26:05;4.90;76.50
76211;DHT22;65003;49.518;11.280;2023-04-03T03:28:30;4.90;76.40
76211;DHT22;65003;49.518;11.280;2023-04-03T03:30:57;4.90;76.70
76211;DHT22;65003;49.518;11.280;2023-04-03T03:33:24;4.80;77.00
76211;DHT22;65003;49.518;11.280;2023-04-03T03:35:51;4.70;77.80
76211;DHT22;65003;49.518;11.280;2023-04-03T03:38:17;4.70;78.80
76211;DHT22;65003;49.518;11.280;2023-04-03T03:40:43;4.80;77.60
76211;DHT22;65003;49.518;11.280;2023-04-03T03:43:10;4.80;77.40
76211;DHT22;65003;49.518;11.280;2023-04-03T03:45:37;4.90;77.00
76211;DHT22;65003;49.518;11.280;2023-04-03T03:48:04;4.90;76.70
76211;DHT22;65003;49.518;11.280;2023-04-03T03:50:31;4.90;76.60
76211;DHT22;65003;49.518;11.280;2023-04-03T03:52:57;4.80;77.20
76211;DHT22;65003;49.518;11.280;2023-04-03T03:55:24;4.90;77.30
76211;DHT22;65003;49.518;11.280;2023-04-03T03:57:50;4.90;77.40
76211;DHT22;65003;49.518;11.280;2023-04-03T04:00:17;4.90;77.50
76211;DHT22;65003;49.518;11.280;2023-04-03T04:02:44;4.90;77.50
76211;DHT22;65003;49.518;11.280;2023-04-03T04:05:10;4.80;78.00
76211;DHT22;65003;49.518;11.280;2023-04-03T04:07:37;4.70;78.40
76211;DHT22;65003;49.518;11.280;2023-04-03T04:10:04;4.60;78.60
76211;DHT22;65003;49.518;11.280;2023-04-03T04:12:31;4.70;78.30
76211;DHT22;65003;49.518;11.280;2023-04-03T04:14:57;4.70;78.00
76211;DHT22;65003;49.518;11.280;2023-04-03T04:17:24;4.70;78.50
76211;DHT22;65003;49.518;11.280;2023-04-03T04:19:50;4.60;78.60
76211;DHT22;65003;49.518;11.280;2023-04-03T04:22:17;4.60;78.70
76211;DHT22;65003;49.518;11.280;2023-04-03T04:24:44;4.50;78.60
76211;DHT22;65003;49.518;11.280;2023-04-03T04:27:10;4.30;79.00
76211;DHT22;65003;49.518;11.280;2023-04-03T04:29:37;3.90;80.80
76211;DHT22;65003;49.518;11.280;2023-04-03T04:32:04;3.80;82.10
76211;DHT22;65003;49.518;11.280;2023-04-03T04:34:30;3.90;82.00
76211;DHT22;65003;49.518;11.280;2023-04-03T04:36:57;4.10;82.00
76211;DHT22;65003;49.518;11.280;2023-04-03T04:39:23;4.20;81.70
76211;DHT22;65003;49.518;11.280;2023-04-03T04:41:50;4.20;81.00
76211;DHT22;65003;49.518;11.280;2023-04-03T04:44:16;4.30;80.60
76211;DHT22;65003;49.518;11.280;2023-04-03T04:46:43;4.30;80.50
76211;DHT22;65003;49.518;11.280;2023-04-03T04:49:09;4.30;81.00
76211;DHT22;65003;49.518;11.280;2023-04-03T04:51:36;4.20;81.70
76211;DHT22;65003;49.518;11.280;2023-04-03T04:54:03;4.20;81.40
76211;DHT22;65003;49.518;11.280;2023-04-03T04:56:29;4.30;81.40
76211;DHT22;65003;49.518;11.280;2023-04-03T04:58:56;4.30;81.90
76211;DHT22;65003;49.518;11.280;2023-04-03T05:01:22;4.20;82.40
76211;DHT22;65003;49.518;11.280;2023-04-03T05:03:49;4.20;82.30
76211;DHT22;65003;49.518;11.280;2023-04-03T05:06:15;3.90;83.10
76211;DHT22;65003;49.518;11.280;2023-04-03T05:08:42;3.50;84.90
76211;DHT22;65003;49.518;11.280;2023-04-03T05:11:09;3.40;97.30
76211;DHT22;65003;49.518;11.280;2023-04-03T05:13:35;3.60;99.90
76211;DHT22;65003;49.518;11.280;2023-04-03T05:16:02;3.60;99.90
76211;DHT22;65003;49.518;11.280;2023-04-03T05:18:28;3.80;99.90
76211;DHT22;65003;49.518;11.280;2023-04-03T05:20:55;4.00;99.90
76211;DHT22;65003;49.518;11.280;2023-04-03T05:23:23;4.30;99.90
76211;DHT22;65003;49.518;11.280;2023-04-03T05:25:50;4.50;99.90
76211;DHT22;65003;49.518;11.280;2023-04-03T05:28:17;4.70;99.90
76211;DHT22;65003;49.518;11.280;2023-04-03T05:30:43;4.80;99.90
76211;DHT22;65003;49.518;11.280;2023-04-03T06:39:37;4.80;99.90
76211;DHT22;65003;49.518;11.280;2023-04-03T06:46:57;5.20;99.90
76211;DHT22;65003;49.518;11.280;2023-04-03T06:59:11;4.80;99.90
76211;DHT22;65003;49.518;11.280;2023-04-03T07:01:37;4.90;99.90
76211;DHT22;65003;49.518;11.280;2023-04-03T07:13:52;5.90;99.90
76211;DHT22;65003;49.518;11.280;2023-04-03T07:16:19;6.10;99.90
76211;DHT22;65003;49.518;11.280;2023-04-03T07:23:39;5.90;99.90
76211;DHT22;65003;49.518;11.280;2023-04-03T07:35:54;6.90;99.90
76211;DHT22;65003;49.518;11.280;2023-04-03T07:38:20;7.10;99.90
76211;DHT22;65003;49.518;11.280;2023-04-03T07:43:16;7.10;99.90
76211;DHT22;65003;49.518;11.280;2023-04-03T07:53:03;8.00;99.90
76211;DHT22;65003;49.518;11.280;2023-04-03T07:55:31;8.30;98.30
76211;DHT22;65003;49.518;11.280;2023-04-03T07:57:56;9.00;96.50
76211;DHT22;65003;49.518;11.280;2023-04-03T08:02:51;10.40;93.90
76211;DHT22;65003;49.518;11.280;2023-04-03T08:12:41;15.50;88.20
76211;DHT22;65003;49.518;11.280;2023-04-03T08:15:08;16.20;59.30
76211;DHT22;65003;49.518;11.280;2023-04-03T08:17:35;16.70;55.70
76211;DHT22;65003;49.518;11.280;2023-04-03T08:22:29;18.80;80.70
76211;DHT22;65003;49.518;11.280;2023-04-03T08:24:55;21.60;44.00
76211;DHT22;65003;49.518;11.280;2023-04-03T08:27:21;24.70;30.00
76211;DHT22;65003;49.518;11.280;2023-04-03T08:29:48;26.00;24.00
76211;DHT22;65003;49.518;11.280;2023-04-03T08:32:15;24.60;23.30
76211;DHT22;65003;49.518;11.280;2023-04-03T08:34:41;25.10;23.80
76211;DHT22;65003;49.518;11.280;2023-04-03T08:37:08;26.90;23.00
76211;DHT22;65003;49.518;11.280;2023-04-03T08:39:34;27.60;20.80
76211;DHT22;65003;49.518;11.280;2023-04-03T08:42:03;25.60;21.60
76211;DHT22;65003;49.518;11.280;2023-04-03T08:44:38;25.50;22.00
76211;DHT22;65003;49.518;11.280;2023-04-03T08:47:23;26.20;21.70
76211;DHT22;65003;49.518;11.280;2023-04-03T08:49:49;26.60;21.40
76211;DHT22;65003;49.518;11.280;2023-04-03T08:52:18;25.80;22.00
76211;DHT22;65003;49.518;11.280;2023-04-03T08:54:48;25.80;21.70
76211;DHT22;65003;49.518;11.280;2023-04-03T08:57:13;23.80;23.20
76211;DHT22;65003;49.518;11.280;2023-04-03T08:59:40;20.60;25.80
76211;DHT22;65003;49.518;11.280;2023-04-03T09:02:29;17.10;29.80
76211;DHT22;65003;49.518;11.280;2023-04-03T09:04:53;14.90;40.30
76211;DHT22;65003;49.518;11.280;2023-04-03T09:07:25;14.40;39.30
76211;DHT22;65003;49.518;11.280;2023-04-03T09:09:49;13.80;38.80
76211;DHT22;65003;49.518;11.280;2023-04-03T09:12:27;13.10;37.40
76211;DHT22;65003;49.518;11.280;2023-04-03T09:15:05;12.40;50.00
76211;DHT22;65003;49.518;11.280;2023-04-03T09:17:35;12.80;39.70
76211;DHT22;65003;49.518;11.280;2023-04-03T09:20:39;13.20;36.30
76211;DHT22;65003;49.518;11.280;2023-04-03T09:22:46;13.10;36.50
76211;DHT22;65003;49.518;11.280;2023-04-03T09:25:23;12.50;36.40
76211;DHT22;65003;49.518;11.280;2023-04-03T09:27:50;12.00;37.80
76211;DHT22;65003;49.518;11.280;2023-04-03T09:30:18;14.80;34.40
76211;DHT22;65003;49.518;11.280;2023-04-03T09:32:45;15.90;31.90
76211;DHT22;65003;49.518;11.280;2023-04-03T09:35:26;18.30;34.20
76211;DHT22;65003;49.518;11.280;2023-04-03T09:37:54;21.20;24.30
76211;DHT22;65003;49.518;11.280;2023-04-03T09:40:36;24.30;24.10
76211;DHT22;65003;49.518;11.280;2023-04-03T09:43:08;26.60;18.60
76211;DHT22;65003;49.518;11.280;2023-04-03T09:45:29;26.70;18.80
76211;DHT22;65003;49.518;11.280;2023-04-03T09:48:23;28.80;18.40
76211;DHT22;65003;49.518;11.280;2023-04-03T09:50:59;28.30;17.40
76211;DHT22;65003;49.518;11.280;2023-04-03T09:53:28;25.50;19.30
76211;DHT22;65003;49.518;11.280;2023-04-03T09:55:53;22.10;21.90
76211;DHT22;65003;49.518;11.280;2023-04-03T09:58:38;19.70;25.00
76211;DHT22;65003;49.518;11.280;2023-04-03T10:01:04;18.10;24.30
76211;DHT22;65003;49.518;11.280;2023-04-03T10:03:32;16.50;27.50
76211;DHT22;65003;49.518;11.280;2023-04-03T10:05:58;16.30;29.70
76211;DHT22;65003;49.518;11.280;2023-04-03T10:08:25;16.50;28.90
76211;DHT22;65003;49.518;11.280;2023-04-03T10:11:15;15.60;29.70
76211;DHT22;65003;49.518;11.280;2023-04-03T10:14:16;15.00;31.60
76211;DHT22;65003;49.518;11.280;2023-04-03T10:16:29;15.40;31.80
76211;DHT22;65003;49.518;11.280;2023-04-03T10:19:00;19.10;26.10
76211;DHT22;65003;49.518;11.280;2023-04-03T10:21:40;22.60;21.50
76211;DHT22;65003;49.518;11.280;2023-04-03T10:24:09;26.00;18.90
76211;DHT22;65003;49.518;11.280;2023-04-03T10:26:56;28.40;18.30
76211;DHT22;65003;49.518;11.280;2023-04-03T10:29:24;27.30;16.90
76211;DHT22;65003;49.518;11.280;2023-04-03T10:31:59;23.70;19.30
76211;DHT22;65003;49.518;11.280;2023-04-03T10:34:28;20.70;21.80
76211;DHT22;65003;49.518;11.280;2023-04-03T10:37:00;19.10;24.40
76211;DHT22;65003;49.518;11.280;2023-04-03T10:42:14;26.60;18.70
76211;DHT22;65003;49.518;11.280;2023-04-03T10:44:48;29.80;16.20
76211;DHT22;65003;49.518;11.280;2023-04-03T10:47:28;26.80;16.50
76211;DHT22;65003;49.518;11.280;2023-04-03T10:49:56;25.60;18.10
76211;DHT22;65003;49.518;11.280;2023-04-03T10:52:23;28.50;17.20
76211;DHT22;65003;49.518;11.280;2023-04-03T10:54:55;30.90;16.00
76211;DHT22;65003;49.518;11.280;2023-04-03T10:57:16;32.00;15.20
76211;DHT22;65003;49.518;11.280;2023-04-03T10:59:44;29.60;15.20
76211;DHT22;65003;49.518;11.280;2023-04-03T11:02:22;25.00;17.80
76211;DHT22;65003;49.518;11.280;2023-04-03T11:04:48;22.10;20.10
76211;DHT22;65003;49.518;11.280;2023-04-03T11:07:17;21.50;21.00
76211;DHT22;65003;49.518;11.280;2023-04-03T11:09:42;22.30;20.20
76211;DHT22;65003;49.518;11.280;2023-04-03T11:12:13;21.20;20.40
76211;DHT22;65003;49.518;11.280;2023-04-03T11:14:38;20.60;22.10
76211;DHT22;65003;49.518;11.280;2023-04-03T11:17:15;20.20;21.70
76211;DHT22;65003;49.518;11.280;2023-04-03T11:19:44;18.50;23.80
76211;DHT22;65003;49.518;11.280;2023-04-03T11:22:12;17.10;26.30
76211;DHT22;65003;49.518;11.280;2023-04-03T11:24:36;16.20;26.10
76211;DHT22;65003;49.518;11.280;2023-04-03T11:27:02;15.70;26.80
76211;DHT22;65003;49.518;11.280;2023-04-03T11:29:34;14.50;26.60
76211;DHT22;65003;49.518;11.280;2023-04-03T11:32:09;13.70;28.00
76211;DHT22;65003;49.518;11.280;2023-04-03T11:34:35;13.00;29.00
76211;DHT22;65003;49.518;11.280;2023-04-03T11:37:01;13.10;29.50
76211;DHT22;65003;49.518;11.280;2023-04-03T11:39:29;13.60;29.90
76211;DHT22;65003;49.518;11.280;2023-04-03T11:41:55;13.40;28.20
76211;DHT22;65003;49.518;11.280;2023-04-03T11:44:30;13.40;29.60
76211;DHT22;65003;49.518;11.280;2023-04-03T11:46:56;13.30;29.00
76211;DHT22;65003;49.518;11.280;2023-04-03T11:52:00;13.00;29.20
76211;DHT22;65003;49.518;11.280;2023-04-03T11:54:36;13.00;30.30
76211;DHT22;65003;49.518;11.280;2023-04-03T11:57:22;13.20;29.10
76211;DHT22;65003;49.518;11.280;2023-04-03T11:59:28;12.70;29.20
76211;DHT22;65003;49.518;11.280;2023-04-03T12:01:55;12.40;29.80
76211;DHT22;65003;49.518;11.280;2023-04-03T12:04:22;12.40;30.80
76211;DHT22;65003;49.518;11.280;2023-04-03T12:06:50;12.50;29.70
76211;DHT22;65003;49.518;11.280;2023-04-03T12:09:26;12.40;29.60
76211;DHT22;65003;49.518;11.280;2023-04-03T12:11:51;12.20;30.20
76211;DHT22;65003;49.518;11.280;2023-04-03T12:14:18;12.10;30.50
76211;DHT22;65003;49.518;11.280;2023-04-03T12:16:48;12.10;29.70
76211;DHT22;65003;49.518;11.280;2023-04-03T12:19:30;12.30;30.90
76211;DHT22;65003;49.518;11.280;2023-04-03T12:22:13;12.20;32.00
76211;DHT22;65003;49.518;11.280;2023-04-03T12:24:39;12.50;33.30
76211;DHT22;65003;49.518;11.280;2023-04-03T12:27:15;12.70;33.10
76211;DHT22;65003;49.518;11.280;2023-04-03T12:33:27;12.50;31.90
76211;DHT22;65003;49.518;11.280;2023-04-03T12:35:21;11.80;30.30
76211;DHT22;65003;49.518;11.280;2023-04-03T12:38:41;11.70;31.70
76211;DHT22;65003;49.518;11.280;2023-04-03T12:40:50;11.60;31.20
76211;DHT22;65003;49.518;11.280;2023-04-03T12:46:23;12.50;30.20
76211;DHT22;65003;49.518;11.280;2023-04-03T12:48:33;12.30;32.30
76211;DHT22;65003;49.518;11.280;2023-04-03T12:50:58;12.60;32.90
76211;DHT22;65003;49.518;11.280;2023-04-03T12:53:26;12.80;32.10
76211;DHT22;65003;49.518;11.280;2023-04-03T12:55:55;12.90;34.00
76211;DHT22;65003;49.518;11.280;2023-04-03T12:58:24;12.70;33.80
76211;DHT22;65003;49.518;11.280;2023-04-03T13:01:02;12.50;32.30
76211;DHT22;65003;49.518;11.280;2023-04-03T13:03:28;12.20;33.50
76211;DHT22;65003;49.518;11.280;2023-04-03T13:05:56;12.10;34.20
76211;DHT22;65003;49.518;11.280;2023-04-03T13:08:21;12.00;35.10
76211;DHT22;65003;49.518;11.280;2023-04-03T13:10:54;12.10;36.10
76211;DHT22;65003;49.518;11.280;2023-04-03T13:13:19;12.10;35.60
76211;DHT22;65003;49.518;11.280;2023-04-03T13:15:47;11.80;34.60
76211;DHT22;65003;49.518;11.280;2023-04-03T13:18:22;11.40;35.20
76211;DHT22;65003;49.518;11.280;2023-04-03T13:20:47;11.20;35.10
76211;DHT22;65003;49.518;11.280;2023-04-03T13:23:14;11.20;35.40
76211;DHT22;65003;49.518;11.280;2023-04-03T13:25:41;11.40;35.70
76211;DHT22;65003;49.518;11.280;2023-04-03T13:28:09;11.40;35.20
76211;DHT22;65003;49.518;11.280;2023-04-03T13:30:35;11.20;35.00
76211;DHT22;65003;49.518;11.280;2023-04-03T13:33:01;11.10;35.10
76211;DHT22;65003;49.518;11.280;2023-04-03T13:35:30;11.20;35.80
76211;DHT22;65003;49.518;11.280;2023-04-03T13:37:57;11.00;34.50
76211;DHT22;65003;49.518;11.280;2023-04-03T13:40:23;10.60;36.10
76211;DHT22;65003;49.518;11.280;2023-04-03T13:43:06;10.60;35.00
76211;DHT22;65003;49.518;11.280;2023-04-03T13:45:31;10.60;35.20
76211;DHT22;65003;49.518;11.280;2023-04-03T13:48:08;10.70;36.60
76211;DHT22;65003;49.518;11.280;2023-04-03T13:50:33;10.80;37.00
76211;DHT22;65003;49.518;11.280;2023-04-03T13:53:01;11.00;37.10
76211;DHT22;65003;49.518;11.280;2023-04-03T13:55:29;11.20;36.80
76211;DHT22;65003;49.518;11.280;2023-04-03T13:58:01;11.30;37.20
76211;DHT22;65003;49.518;11.280;2023-04-03T14:00:34;11.30;36.30
76211;DHT22;65003;49.518;11.280;2023-04-03T14:02:58;11.20;36.40
76211;DHT22;65003;49.518;11.280;2023-04-03T14:05:25;11.20;36.20
76211;DHT22;65003;49.518;11.280;2023-04-03T14:07:54;10.90;37.00
76211;DHT22;65003;49.518;11.280;2023-04-03T14:10:18;10.90;35.20
76211;DHT22;65003;49.518;11.280;2023-04-03T14:12:45;10.80;35.80
76211;DHT22;65003;49.518;11.280;2023-04-03T14:15:18;10.70;36.80
76211;DHT22;65003;49.518;11.280;2023-04-03T14:17:43;10.70;36.20
76211;DHT22;65003;49.518;11.280;2023-04-03T14:20:14;10.70;36.60
76211;DHT22;65003;49.518;11.280;2023-04-03T14:22:36;10.70;36.90
76211;DHT22;65003;49.518;11.280;2023-04-03T14:25:03;10.50;36.20
76211;DHT22;65003;49.518;11.280;2023-04-03T14:27:37;10.30;36.70
76211;DHT22;65003;49.518;11.280;2023-04-03T14:30:07;10.00;36.10
76211;DHT22;65003;49.518;11.280;2023-04-03T14:32:31;9.80;35.90
76211;DHT22;65003;49.518;11.280;2023-04-03T14:34:58;9.80;37.50
76211;DHT22;65003;49.518;11.280;2023-04-03T14:37:25;9.80;36.70
76211;DHT22;65003;49.518;11.280;2023-04-03T14:39:51;9.80;37.10
76211;DHT22;65003;49.518;11.280;2023-04-03T14:42:19;9.70;37.20
76211;DHT22;65003;49.518;11.280;2023-04-03T14:44:44;9.80;37.90
76211;DHT22;65003;49.518;11.280;2023-04-03T14:47:12;9.80;39.00
76211;DHT22;65003;49.518;11.280;2023-04-03T14:49:38;10.00;38.60
76211;DHT22;65003;49.518;11.280;2023-04-03T14:52:05;9.80;37.50
76211;DHT22;65003;49.518;11.280;2023-04-03T14:54:31;9.70;37.50
76211;DHT22;65003;49.518;11.280;2023-04-03T14:56:59;9.20;38.10
76211;DHT22;65003;49.518;11.280;2023-04-03T14:59:24;8.90;39.40
76211;DHT22;65003;49.518;11.280;2023-04-03T15:01:51;8.60;40.50
76211;DHT22;65003;49.518;11.280;2023-04-03T15:04:19;8.50;40.70
76211;DHT22;65003;49.518;11.280;2023-04-03T15:06:44;8.50;41.30
76211;DHT22;65003;49.518;11.280;2023-04-03T15:09:23;8.50;41.60
76211;DHT22;65003;49.518;11.280;2023-04-03T15:11:50;8.70;42.80
76211;DHT22;65003;49.518;11.280;2023-04-03T15:14:17;8.80;43.00
76211;DHT22;65003;49.518;11.280;2023-04-03T15:16:43;8.90;41.60
76211;DHT22;65003;49.518;11.280;2023-04-03T15:19:10;9.10;41.60
76211;DHT22;65003;49.518;11.280;2023-04-03T15:21:36;9.20;41.00
76211;DHT22;65003;49.518;11.280;2023-04-03T15:24:03;9.20;41.10
76211;DHT22;65003;49.518;11.280;2023-04-03T15:26:29;9.10;41.10
76211;DHT22;65003;49.518;11.280;2023-04-03T15:28:56;9.00;41.30
76211;DHT22;65003;49.518;11.280;2023-04-03T15:31:23;9.00;41.30
76211;DHT22;65003;49.518;11.280;2023-04-03T15:33:49;8.90;40.90
76211;DHT22;65003;49.518;11.280;2023-04-03T15:36:16;8.80;40.60
76211;DHT22;65003;49.518;11.280;2023-04-03T15:38:43;8.80;40.90
76211;DHT22;65003;49.518;11.280;2023-04-03T15:41:09;8.80;42.00
76211;DHT22;65003;49.518;11.280;2023-04-03T15:43:36;9.00;41.70
76211;DHT22;65003;49.518;11.280;2023-04-03T15:46:03;8.90;41.20
76211;DHT22;65003;49.518;11.280;2023-04-03T15:48:29;8.80;41.50
76211;DHT22;65003;49.518;11.280;2023-04-03T15:50:56;8.80;40.80
76211;DHT22;65003;49.518;11.280;2023-04-03T15:53:24;8.80;41.60
76211;DHT22;65003;49.518;11.280;2023-04-03T15:55:51;9.00;41.70
76211;DHT22;65003;49.518;11.280;2023-04-03T15:58:17;9.00;41.10
76211;DHT22;65003;49.518;11.280;2023-04-03T16:00:44;8.80;42.30
76211;DHT22;65003;49.518;11.280;2023-04-03T16:03:11;8.80;42.00
76211;DHT22;65003;49.518;11.280;2023-04-03T16:05:37;8.60;41.30
76211;DHT22;65003;49.518;11.280;2023-04-03T16:08:04;8.50;41.30
76211;DHT22;65003;49.518;11.280;2023-04-03T16:10:31;8.40;41.50
76211;DHT22;65003;49.518;11.280;2023-04-03T16:12:58;8.20;42.70
76211;DHT22;65003;49.518;11.280;2023-04-03T16:15:24;8.10;43.10
76211;DHT22;65003;49.518;11.280;2023-04-03T16:17:51;8.10;42.80
76211;DHT22;65003;49.518;11.280;2023-04-03T16:20:17;8.10;42.30
76211;DHT22;65003;49.518;11.280;2023-04-03T16:22:44;7.90;41.90
76211;DHT22;65003;49.518;11.280;2023-04-03T16:25:11;7.80;42.80
76211;DHT22;65003;49.518;11.280;2023-04-03T16:27:37;7.80;43.60
76211;DHT22;65003;49.518;11.280;2023-04-03T16:30:05;7.90;44.60
76211;DHT22;65003;49.518;11.280;2023-04-03T16:32:31;8.00;42.90
76211;DHT22;65003;49.518;11.280;2023-04-03T16:34:58;7.90;43.30
76211;DHT22;65003;49.518;11.280;2023-04-03T16:37:25;7.90;43.80
76211;DHT22;65003;49.518;11.280;2023-04-03T16:39:51;7.90;43.90
76211;DHT22;65003;49.518;11.280;2023-04-03T16:42:18;8.00;43.50
76211;DHT22;65003;49.518;11.280;2023-04-03T16:44:44;7.80;43.50
76211;DHT22;65003;49.518;11.280;2023-04-03T16:47:11;7.40;43.40
76211;DHT22;65003;49.518;11.280;2023-04-03T16:49:37;7.40;44.40
76211;DHT22;65003;49.518;11.280;2023-04-03T16:52:04;7.50;43.30
76211;DHT22;65003;49.518;11.280;2023-04-03T16:54:31;7.30;44.10
76211;DHT22;65003;49.518;11.280;2023-04-03T16:56:57;7.10;44.20
76211;DHT22;65003;49.518;11.280;2023-04-03T16:59:24;6.90;44.70
76211;DHT22;65003;49.518;11.280;2023-04-03T17:01:50;7.00;45.30
76211;DHT22;65003;49.518;11.280;2023-04-03T17:04:17;7.00;45.50
76211;DHT22;65003;49.518;11.280;2023-04-03T17:06:44;7.00;45.00
76211;DHT22;65003;49.518;11.280;2023-04-03T17:09:10;6.90;45.20
76211;DHT22;65003;49.518;11.280;2023-04-03T17:11:38;6.70;45.10
76211;DHT22;65003;49.518;11.280;2023-04-03T17:14:05;6.60;45.20
76211;DHT22;65003;49.518;11.280;2023-04-03T17:16:33;6.60;45.50
76211;DHT22;65003;49.518;11.280;2023-04-03T17:18:57;6.30;45.70
76211;DHT22;65003;49.518;11.280;2023-04-03T17:21:24;6.20;45.70
76211;DHT22;65003;49.518;11.280;2023-04-03T17:23:52;6.10;45.70
76211;DHT22;65003;49.518;11.280;2023-04-03T17:26:18;6.00;46.00
76211;DHT22;65003;49.518;11.280;2023-04-03T17:28:44;6.00;46.00
76211;DHT22;65003;49.518;11.280;2023-04-03T17:31:11;5.90;46.90
76211;DHT22;65003;49.518;11.280;2023-04-03T17:33:37;5.70;47.00
76211;DHT22;65003;49.518;11.280;2023-04-03T17:36:04;5.50;47.40
76211;DHT22;65003;49.518;11.280;2023-04-03T17:38:31;5.40;48.60
76211;DHT22;65003;49.518;11.280;2023-04-03T17:40:58;5.40;48.20
76211;DHT22;65003;49.518;11.280;2023-04-03T17:43:24;5.20;48.30
76211;DHT22;65003;49.518;11.280;2023-04-03T17:45:51;5.30;49.00
76211;DHT22;65003;49.518;11.280;2023-04-03T17:48:18;5.30;49.40
76211;DHT22;65003;49.518;11.280;2023-04-03T17:50:44;5.10;48.50